createdAt,value
2018-12-05T00:00:29.432Z,1014.08
2018-12-05T00:01:29.411Z,1014.15
2018-12-05T00:02:29.403Z,1014.13
2018-12-05T00:03:29.414Z,1014.16
2018-12-05T00:04:29.395Z,1014.15
2018-12-05T00:05:29.371Z,1014.23
2018-12-05T00:06:29.408Z,1014.20
2018-12-05T00:07:29.351Z,1014.21
2018-12-05T00:08:29.343Z,1014.21
2018-12-05T00:09:29.319Z,1014.23
2018-12-05T00:10:29.335Z,1014.21
2018-12-05T00:11:29.335Z,1014.27
2018-12-05T00:12:29.331Z,1014.17
2018-12-05T00:13:29.290Z,1014.16
2018-12-05T00:14:29.264Z,1014.20
2018-12-05T00:15:29.297Z,1014.21
2018-12-05T00:16:29.276Z,1014.19
2018-12-05T00:17:29.231Z,1014.16
2018-12-05T00:18:29.228Z,1014.14
2018-12-05T00:19:29.216Z,1014.12
2018-12-05T00:20:29.203Z,1014.11
2018-12-05T00:21:29.217Z,1014.09
2018-12-05T00:22:29.176Z,1014.13
2018-12-05T00:23:29.161Z,1014.11
2018-12-05T00:24:29.154Z,1014.15
2018-12-05T00:25:29.145Z,1014.16
2018-12-05T00:26:29.129Z,1014.19
2018-12-05T00:27:29.145Z,1014.20
2018-12-05T00:28:29.114Z,1014.17
2018-12-05T00:29:29.129Z,1014.22
2018-12-05T00:30:29.084Z,1014.20
2018-12-05T00:31:29.074Z,1014.13
2018-12-05T00:32:29.088Z,1014.17
2018-12-05T00:33:29.053Z,1014.19
2018-12-05T00:34:29.046Z,1014.19
2018-12-05T00:35:29.071Z,1014.26
2018-12-05T00:36:29.038Z,1014.19
2018-12-05T00:37:29.042Z,1014.24
2018-12-05T00:38:29.007Z,1014.21
2018-12-05T00:39:28.989Z,1014.21
2018-12-05T00:40:28.981Z,1014.30
2018-12-05T00:41:28.995Z,1014.30
2018-12-05T00:42:28.979Z,1014.26
2018-12-05T00:43:28.962Z,1014.30
2018-12-05T00:44:28.954Z,1014.28
2018-12-05T00:45:28.919Z,1014.31
2018-12-05T00:46:28.909Z,1014.35
2018-12-05T00:47:28.896Z,1014.33
2018-12-05T00:48:28.913Z,1014.39
2018-12-05T00:49:28.882Z,1014.34
2018-12-05T00:50:28.891Z,1014.39
2018-12-05T00:51:28.857Z,1014.38
2018-12-05T00:52:28.844Z,1014.40
2018-12-05T00:53:28.881Z,1014.38
2018-12-05T00:54:28.827Z,1014.40
2018-12-05T00:55:28.816Z,1014.39
2018-12-05T00:56:28.811Z,1014.43
2018-12-05T00:57:28.796Z,1014.44
2018-12-05T00:58:28.870Z,1014.53
2018-12-05T00:59:28.768Z,1014.45
2018-12-05T01:00:28.773Z,1014.42
2018-12-05T01:01:28.793Z,1014.49
2018-12-05T01:02:28.737Z,1014.52
2018-12-05T01:03:28.719Z,1014.50
2018-12-05T01:04:28.755Z,1014.51
2018-12-05T01:05:28.716Z,1014.47
2018-12-05T01:06:28.690Z,1014.48
2018-12-05T01:07:28.686Z,1014.47
2018-12-05T01:08:28.713Z,1014.45
2018-12-05T01:09:28.698Z,1014.51
2018-12-05T01:10:28.671Z,1014.51
2018-12-05T01:11:28.636Z,1014.55
2018-12-05T01:12:28.628Z,1014.54
2018-12-05T01:13:28.633Z,1014.54
2018-12-05T01:14:28.624Z,1014.51
2018-12-05T01:15:28.591Z,1014.51
2018-12-05T01:16:28.590Z,1014.50
2018-12-05T01:17:28.567Z,1014.53
2018-12-05T01:18:28.556Z,1014.57
2018-12-05T01:19:28.564Z,1014.58
2018-12-05T01:20:28.556Z,1014.56
2018-12-05T01:21:28.522Z,1014.57
2018-12-05T01:22:28.511Z,1014.54
2018-12-05T01:23:28.497Z,1014.58
2018-12-05T01:24:28.488Z,1014.57
2018-12-05T01:25:28.509Z,1014.62
2018-12-05T01:26:28.476Z,1014.57
2018-12-05T01:27:28.454Z,1014.54
2018-12-05T01:28:28.441Z,1014.58
2018-12-05T01:29:28.433Z,1014.53
2018-12-05T01:30:28.449Z,1014.57
2018-12-05T01:31:28.450Z,1014.54
2018-12-05T01:32:28.410Z,1014.59
2018-12-05T01:33:28.389Z,1014.64
2018-12-05T01:34:28.395Z,1014.58
2018-12-05T01:35:28.394Z,1014.55
2018-12-05T01:36:28.358Z,1014.57
2018-12-05T01:37:28.395Z,1014.63
2018-12-05T01:38:28.352Z,1014.66
2018-12-05T01:39:28.321Z,1014.60
2018-12-05T01:40:28.333Z,1014.52
2018-12-05T01:41:28.332Z,1014.59
2018-12-05T01:42:28.289Z,1014.55
2018-12-05T01:43:28.288Z,1014.63
2018-12-05T01:44:28.291Z,1014.63
2018-12-05T01:45:28.255Z,1014.67
2018-12-05T01:46:28.265Z,1014.53
2018-12-05T01:47:28.245Z,1014.57
2018-12-05T01:48:28.221Z,1014.57
2018-12-05T01:49:28.230Z,1014.50
2018-12-05T01:50:28.214Z,1014.51
2018-12-05T01:51:28.229Z,1014.51
2018-12-05T01:52:28.184Z,1014.50
2018-12-05T01:53:28.176Z,1014.57
2018-12-05T01:54:28.154Z,1014.56
2018-12-05T01:55:28.149Z,1014.46
2018-12-05T01:56:28.135Z,1014.43
2018-12-05T01:57:28.155Z,1014.44
2018-12-05T01:58:28.118Z,1014.39
2018-12-05T01:59:28.109Z,1014.44
2018-12-05T02:00:28.089Z,1014.46
2018-12-05T02:01:28.126Z,1014.46
2018-12-05T02:02:28.096Z,1014.43
2018-12-05T02:03:28.068Z,1014.51
2018-12-05T02:04:28.045Z,1014.44
2018-12-05T02:05:28.054Z,1014.62
2018-12-05T02:06:28.031Z,1014.60
2018-12-05T02:07:28.046Z,1014.55
2018-12-05T02:08:28.027Z,1014.55
2018-12-05T02:09:27.991Z,1014.60
2018-12-05T02:10:28.009Z,1014.50
2018-12-05T02:11:27.978Z,1014.59
2018-12-05T02:12:27.975Z,1014.62
2018-12-05T02:13:28.004Z,1014.55
2018-12-05T02:14:27.950Z,1014.58
2018-12-05T02:15:27.925Z,1014.57
2018-12-05T02:16:27.920Z,1014.57
2018-12-05T02:17:27.921Z,1014.60
2018-12-05T02:18:27.974Z,1014.64
2018-12-05T02:19:27.883Z,1014.57
2018-12-05T02:20:27.883Z,1014.57
2018-12-05T02:21:27.867Z,1014.64
2018-12-05T02:22:27.886Z,1014.59
2018-12-05T02:23:27.874Z,1014.64
2018-12-05T02:24:27.827Z,1014.59
2018-12-05T02:25:27.813Z,1014.57
2018-12-05T02:26:27.801Z,1014.61
2018-12-05T02:27:27.797Z,1014.60
2018-12-05T02:28:27.779Z,1014.59
2018-12-05T02:29:27.814Z,1014.67
2018-12-05T02:30:27.767Z,1014.61
2018-12-05T02:31:27.748Z,1014.59
2018-12-05T02:32:27.747Z,1014.56
2018-12-05T02:33:27.753Z,1014.56
2018-12-05T02:34:27.753Z,1014.58
2018-12-05T02:35:27.705Z,1014.57
2018-12-05T02:36:27.758Z,1014.59
2018-12-05T02:37:27.687Z,1014.55
2018-12-05T02:38:27.678Z,1014.63
2018-12-05T02:39:27.675Z,1014.60
2018-12-05T02:40:27.677Z,1014.59
2018-12-05T02:41:27.639Z,1014.65
2018-12-05T02:42:27.627Z,1014.72
2018-12-05T02:43:27.631Z,1014.65
2018-12-05T02:44:27.660Z,1014.70
2018-12-05T02:45:27.594Z,1014.80
2018-12-05T02:46:27.586Z,1014.75
2018-12-05T02:47:27.576Z,1014.80
2018-12-05T02:48:27.597Z,1014.71
2018-12-05T02:49:27.550Z,1014.73
2018-12-05T02:50:27.558Z,1014.78
2018-12-05T02:51:27.525Z,1014.75
2018-12-05T02:52:27.514Z,1014.79
2018-12-05T02:53:27.512Z,1014.74
2018-12-05T02:54:27.499Z,1014.80
2018-12-05T02:55:27.503Z,1014.85
2018-12-05T02:56:27.468Z,1014.76
2018-12-05T02:57:27.456Z,1014.84
2018-12-05T02:58:27.444Z,1014.86
2018-12-05T02:59:27.442Z,1014.86
2018-12-05T03:00:27.454Z,1014.88
2018-12-05T03:01:27.411Z,1014.88
2018-12-05T03:02:27.399Z,1014.86
2018-12-05T03:03:27.410Z,1014.84
2018-12-05T03:04:27.382Z,1014.92
2018-12-05T03:05:27.368Z,1014.88
2018-12-05T03:06:27.375Z,1014.94
2018-12-05T03:07:27.354Z,1014.99
2018-12-05T03:08:27.333Z,1014.95
2018-12-05T03:09:27.361Z,1014.95
2018-12-05T03:10:27.332Z,1014.96
2018-12-05T03:11:27.399Z,1014.94
2018-12-05T03:12:27.315Z,1014.97
2018-12-05T03:13:27.283Z,1014.92
2018-12-05T03:14:27.279Z,1014.98
2018-12-05T03:15:27.303Z,1014.94
2018-12-05T03:16:27.278Z,1014.99
2018-12-05T03:17:27.238Z,1014.94
2018-12-05T03:18:27.247Z,1015.03
2018-12-05T03:19:27.224Z,1014.97
2018-12-05T03:20:27.225Z,1014.93
2018-12-05T03:21:27.196Z,1014.95
2018-12-05T03:22:27.209Z,1014.98
2018-12-05T03:23:27.172Z,1014.92
2018-12-05T03:24:27.189Z,1014.95
2018-12-05T03:25:27.151Z,1015.01
2018-12-05T03:26:27.210Z,1014.89
2018-12-05T03:27:27.151Z,1014.91
2018-12-05T03:28:27.125Z,1015.00
2018-12-05T03:29:27.126Z,1014.99
2018-12-05T03:30:27.102Z,1014.91
2018-12-05T03:31:27.090Z,1014.93
2018-12-05T03:32:27.107Z,1014.93
2018-12-05T03:33:27.071Z,1015.00
2018-12-05T03:34:27.051Z,1014.98
2018-12-05T03:35:27.060Z,1015.00
2018-12-05T03:36:27.045Z,1015.10
2018-12-05T03:37:27.017Z,1015.00
2018-12-05T03:38:27.025Z,1014.97
2018-12-05T03:39:27.002Z,1015.00
2018-12-05T03:40:26.995Z,1015.01
2018-12-05T03:41:26.985Z,1015.01
2018-12-05T03:42:26.994Z,1015.04
2018-12-05T03:43:26.987Z,1015.04
2018-12-05T03:44:26.949Z,1014.98
2018-12-05T03:45:26.962Z,1015.00
2018-12-05T03:46:26.928Z,1015.00
2018-12-05T03:47:26.958Z,1015.05
2018-12-05T03:48:26.929Z,1015.02
2018-12-05T03:49:26.896Z,1015.11
2018-12-05T03:50:26.881Z,1015.07
2018-12-05T03:51:26.909Z,1015.10
2018-12-05T03:52:26.870Z,1015.12
2018-12-05T03:53:26.874Z,1015.07
2018-12-05T03:54:26.860Z,1015.13
2018-12-05T03:55:26.822Z,1015.17
2018-12-05T03:56:26.819Z,1015.07
2018-12-05T03:57:26.807Z,1015.22
2018-12-05T03:58:26.789Z,1015.12
2018-12-05T03:59:26.806Z,1015.14
2018-12-05T04:00:26.771Z,1015.20
2018-12-05T04:01:26.769Z,1015.16
2018-12-05T04:02:26.794Z,1015.14
2018-12-05T04:03:26.737Z,1015.19
2018-12-05T04:04:26.793Z,1015.17
2018-12-05T04:05:26.712Z,1015.16
2018-12-05T04:06:26.715Z,1015.13
2018-12-05T04:07:26.698Z,1015.13
2018-12-05T04:08:26.699Z,1015.09
2018-12-05T04:09:26.732Z,1015.09
2018-12-05T04:10:26.660Z,1015.06
2018-12-05T04:11:26.662Z,1015.07
2018-12-05T04:12:26.637Z,1015.10
2018-12-05T04:13:26.680Z,1015.08
2018-12-05T04:14:26.632Z,1015.16
2018-12-05T04:15:26.622Z,1015.13
2018-12-05T04:16:26.591Z,1015.11
2018-12-05T04:17:26.583Z,1015.17
2018-12-05T04:18:26.592Z,1015.20
2018-12-05T04:19:26.557Z,1015.16
2018-12-05T04:20:26.589Z,1015.18
2018-12-05T04:21:26.553Z,1015.13
2018-12-05T04:22:26.549Z,1015.18
2018-12-05T04:23:26.515Z,1015.13
2018-12-05T04:24:26.523Z,1015.15
2018-12-05T04:25:26.526Z,1015.20
2018-12-05T04:26:26.482Z,1015.18
2018-12-05T04:27:26.485Z,1015.15
2018-12-05T04:28:26.481Z,1015.13
2018-12-05T04:29:26.463Z,1015.11
2018-12-05T04:30:26.436Z,1015.13
2018-12-05T04:31:26.467Z,1015.11
2018-12-05T04:32:26.442Z,1015.10
2018-12-05T04:33:26.410Z,1015.12
2018-12-05T04:34:26.392Z,1015.18
2018-12-05T04:35:26.410Z,1015.18
2018-12-05T04:36:26.396Z,1015.12
2018-12-05T04:37:26.384Z,1015.15
2018-12-05T04:38:26.363Z,1015.11
2018-12-05T04:39:26.355Z,1015.12
2018-12-05T04:40:26.337Z,1015.13
2018-12-05T04:41:26.344Z,1015.14
2018-12-05T04:42:26.306Z,1015.07
2018-12-05T04:43:26.296Z,1015.09
2018-12-05T04:44:26.283Z,1015.03
2018-12-05T04:45:26.287Z,1015.08
2018-12-05T04:46:26.283Z,1015.15
2018-12-05T04:47:26.286Z,1015.06
2018-12-05T04:48:26.242Z,1015.14
2018-12-05T04:49:26.250Z,1015.10
2018-12-05T04:50:26.253Z,1015.09
2018-12-05T04:51:26.208Z,1015.07
2018-12-05T04:52:26.237Z,1015.13
2018-12-05T04:53:26.223Z,1015.14
2018-12-05T04:54:26.183Z,1015.15
2018-12-05T04:55:26.186Z,1015.21
2018-12-05T04:56:26.155Z,1015.15
2018-12-05T04:57:26.163Z,1015.14
2018-12-05T04:58:26.155Z,1015.20
2018-12-05T04:59:26.135Z,1015.25
2018-12-05T05:00:26.119Z,1015.26
2018-12-05T05:01:26.108Z,1015.28
2018-12-05T05:02:26.103Z,1015.28
2018-12-05T05:03:26.129Z,1015.34
2018-12-05T05:04:26.097Z,1015.34
2018-12-05T05:05:26.053Z,1015.37
2018-12-05T05:06:26.042Z,1015.34
2018-12-05T05:07:26.039Z,1015.38
2018-12-05T05:08:26.056Z,1015.38
2018-12-05T05:09:26.009Z,1015.34
2018-12-05T05:10:26.051Z,1015.35
2018-12-05T05:11:25.991Z,1015.33
2018-12-05T05:12:25.990Z,1015.31
2018-12-05T05:13:25.994Z,1015.34
2018-12-05T05:14:25.983Z,1015.35
2018-12-05T05:15:25.956Z,1015.35
2018-12-05T05:16:25.934Z,1015.36
2018-12-05T05:17:25.925Z,1015.33
2018-12-05T05:18:25.996Z,1015.41
2018-12-05T05:19:25.924Z,1015.36
2018-12-05T05:20:25.901Z,1015.37
2018-12-05T05:21:25.884Z,1015.39
2018-12-05T05:22:25.892Z,1015.42
2018-12-05T05:23:25.869Z,1015.37
2018-12-05T05:24:25.881Z,1015.38
2018-12-05T05:25:25.846Z,1015.44
2018-12-05T05:26:25.830Z,1015.39
2018-12-05T05:27:25.815Z,1015.45
2018-12-05T05:28:25.817Z,1015.41
2018-12-05T05:29:25.813Z,1015.40
2018-12-05T05:30:25.816Z,1015.43
2018-12-05T05:31:25.777Z,1015.37
2018-12-05T05:32:25.768Z,1015.40
2018-12-05T05:33:25.783Z,1015.40
2018-12-05T05:34:25.738Z,1015.44
2018-12-05T05:35:25.803Z,1015.42
2018-12-05T05:36:25.718Z,1015.36
2018-12-05T05:37:25.712Z,1015.41
2018-12-05T05:38:25.767Z,1015.31
2018-12-05T05:39:25.758Z,1015.34
2018-12-05T05:40:25.706Z,1015.28
2018-12-05T05:41:25.673Z,1015.37
2018-12-05T05:42:25.653Z,1015.35
2018-12-05T05:43:25.648Z,1015.35
2018-12-05T05:44:25.636Z,1015.36
2018-12-05T05:45:25.625Z,1015.34
2018-12-05T05:46:25.641Z,1015.36
2018-12-05T05:47:25.600Z,1015.41
2018-12-05T05:48:25.589Z,1015.41
2018-12-05T05:49:25.575Z,1015.38
2018-12-05T05:50:25.568Z,1015.38
2018-12-05T05:51:25.576Z,1015.34
2018-12-05T05:52:25.557Z,1015.35
2018-12-05T05:53:25.534Z,1015.36
2018-12-05T05:54:25.527Z,1015.32
2018-12-05T05:55:25.518Z,1015.27
2018-12-05T05:56:25.536Z,1015.30
2018-12-05T05:57:25.494Z,1015.31
2018-12-05T05:58:25.477Z,1015.30
2018-12-05T05:59:25.463Z,1015.36
2018-12-05T06:00:25.457Z,1015.34
2018-12-05T06:01:25.477Z,1015.36
2018-12-05T06:02:25.431Z,1015.28
2018-12-05T06:03:25.436Z,1015.36
2018-12-05T06:04:25.416Z,1015.33
2018-12-05T06:05:25.408Z,1015.32
2018-12-05T06:06:25.431Z,1015.34
2018-12-05T06:07:25.407Z,1015.41
2018-12-05T06:08:25.376Z,1015.40
2018-12-05T06:09:25.358Z,1015.40
2018-12-05T06:10:25.346Z,1015.40
2018-12-05T06:11:25.355Z,1015.46
2018-12-05T06:12:25.361Z,1015.37
2018-12-05T06:13:25.323Z,1015.38
2018-12-05T06:14:25.308Z,1015.43
2018-12-05T06:15:25.301Z,1015.42
2018-12-05T06:16:25.289Z,1015.40
2018-12-05T06:17:25.324Z,1015.47
2018-12-05T06:18:25.287Z,1015.47
2018-12-05T06:19:25.257Z,1015.46
2018-12-05T06:20:25.245Z,1015.46
2018-12-05T06:21:25.234Z,1015.45
2018-12-05T06:22:25.299Z,1015.39
2018-12-05T06:23:25.229Z,1015.37
2018-12-05T06:24:25.211Z,1015.37
2018-12-05T06:25:25.191Z,1015.37
2018-12-05T06:26:25.190Z,1015.36
2018-12-05T06:27:25.167Z,1015.43
2018-12-05T06:28:25.173Z,1015.44
2018-12-05T06:29:25.149Z,1015.39
2018-12-05T06:30:25.148Z,1015.44
2018-12-05T06:31:25.204Z,1015.35
2018-12-05T06:32:25.135Z,1015.43
2018-12-05T06:33:25.127Z,1015.42
2018-12-05T06:34:25.095Z,1015.48
2018-12-05T06:35:25.100Z,1015.35
2018-12-05T06:36:25.081Z,1015.39
2018-12-05T06:37:25.061Z,1015.41
2018-12-05T06:38:25.149Z,1015.39
2018-12-05T06:39:25.048Z,1015.37
2018-12-05T06:40:25.051Z,1015.43
2018-12-05T06:41:25.018Z,1015.33
2018-12-05T06:42:25.010Z,1015.37
2018-12-05T06:43:25.030Z,1015.41
2018-12-05T06:44:25.007Z,1015.40
2018-12-05T06:45:24.977Z,1015.43
2018-12-05T06:46:24.970Z,1015.49
2018-12-05T06:47:24.958Z,1015.48
2018-12-05T06:48:24.944Z,1015.51
2018-12-05T06:49:24.972Z,1015.50
2018-12-05T06:50:24.948Z,1015.56
2018-12-05T06:51:24.912Z,1015.54
2018-12-05T06:52:24.913Z,1015.61
2018-12-05T06:53:24.921Z,1015.53
2018-12-05T06:54:25.305Z,1015.64
2018-12-05T06:55:24.880Z,1015.65
2018-12-05T06:56:24.889Z,1015.64
2018-12-05T06:57:24.849Z,1015.69
2018-12-05T06:58:24.873Z,1015.63
2018-12-05T06:59:24.863Z,1015.70
2018-12-05T07:00:24.817Z,1015.68
2018-12-05T07:01:24.808Z,1015.63
2018-12-05T07:02:24.796Z,1015.62
2018-12-05T07:03:24.791Z,1015.63
2018-12-05T07:04:24.796Z,1015.64
2018-12-05T07:05:24.786Z,1015.66
2018-12-05T07:06:24.776Z,1015.68
2018-12-05T07:07:24.744Z,1015.71
2018-12-05T07:08:24.735Z,1015.75
2018-12-05T07:09:24.722Z,1015.73
2018-12-05T07:10:24.754Z,1015.69
2018-12-05T07:11:24.709Z,1015.68
2018-12-05T07:12:24.686Z,1015.68
2018-12-05T07:13:24.706Z,1015.73
2018-12-05T07:14:24.672Z,1015.68
2018-12-05T07:15:24.691Z,1015.68
2018-12-05T07:16:24.671Z,1015.72
2018-12-05T07:17:24.639Z,1015.76
2018-12-05T07:18:24.625Z,1015.73
2018-12-05T07:19:24.617Z,1015.76
2018-12-05T07:20:24.618Z,1015.83
2018-12-05T07:22:32.229Z,1015.89
2018-12-05T07:23:24.570Z,1015.89
2018-12-05T07:24:24.558Z,1015.89
2018-12-05T07:25:24.574Z,1015.87
2018-12-05T07:26:24.560Z,1015.92
2018-12-05T07:27:24.529Z,1015.88
2018-12-05T07:28:24.513Z,1015.92
2018-12-05T07:29:24.508Z,1015.99
2018-12-05T07:30:29.490Z,1015.94
2018-12-05T07:31:25.511Z,1015.94
2018-12-05T07:32:24.479Z,1015.93
2018-12-05T07:33:24.465Z,1015.86
2018-12-05T07:34:24.468Z,1015.91
2018-12-05T07:35:24.449Z,1015.91
2018-12-05T07:36:24.480Z,1015.85
2018-12-05T07:37:24.420Z,1015.85
2018-12-05T07:38:24.415Z,1015.85
2018-12-05T07:39:24.400Z,1015.90
2018-12-05T07:40:24.392Z,1015.86
2018-12-05T07:41:24.384Z,1015.84
2018-12-05T07:42:24.391Z,1015.82
2018-12-05T07:43:24.375Z,1015.82
2018-12-05T07:44:24.350Z,1015.80
2018-12-05T07:45:24.345Z,1015.78
2018-12-05T07:46:24.330Z,1015.78
2018-12-05T07:47:24.344Z,1015.78
2018-12-05T07:48:24.308Z,1015.77
2018-12-05T07:49:31.918Z,1015.86
2018-12-05T07:50:24.280Z,1015.88
2018-12-05T07:51:24.277Z,1015.84
2018-12-05T07:52:24.283Z,1015.82
2018-12-05T07:53:24.248Z,1015.90
2018-12-05T07:54:24.261Z,1015.84
2018-12-05T07:55:24.229Z,1015.90
2018-12-05T07:56:24.218Z,1015.92
2018-12-05T07:57:24.255Z,1015.92
2018-12-05T07:58:24.199Z,1015.91
2018-12-05T07:59:31.775Z,1015.94
2018-12-05T08:00:24.176Z,1015.96
2018-12-05T08:01:24.169Z,1015.93
2018-12-05T08:02:24.157Z,1015.98
2018-12-05T08:03:24.188Z,1016.00
2018-12-05T08:04:24.134Z,1016.06
2018-12-05T08:05:24.120Z,1016.05
2018-12-05T08:06:24.144Z,1016.08
2018-12-05T08:07:24.106Z,1016.03
2018-12-05T08:08:24.131Z,1016.07
2018-12-05T08:09:24.084Z,1016.10
2018-12-05T08:10:24.073Z,1016.08
2018-12-05T08:11:24.058Z,1016.09
2018-12-05T08:12:24.050Z,1016.10
2018-12-05T08:13:24.112Z,1016.18
2018-12-05T08:14:24.037Z,1016.13
2018-12-05T08:15:24.075Z,1016.12
2018-12-05T08:16:24.078Z,1016.17
2018-12-05T08:17:23.993Z,1016.16
2018-12-05T08:18:24.010Z,1016.20
2018-12-05T08:19:23.980Z,1016.17
2018-12-05T08:20:23.961Z,1016.16
2018-12-05T08:21:23.970Z,1016.13
2018-12-05T08:22:23.962Z,1016.07
2018-12-05T08:23:23.924Z,1016.08
2018-12-05T08:24:23.929Z,1016.08
2018-12-05T08:25:23.916Z,1016.07
2018-12-05T08:26:23.889Z,1016.03
2018-12-05T08:27:23.904Z,1016.03
2018-12-05T08:28:23.872Z,1016.05
2018-12-05T08:29:23.873Z,1016.00
2018-12-05T08:30:23.862Z,1016.05
2018-12-05T08:31:23.840Z,1016.00
2018-12-05T08:32:23.876Z,1016.02
2018-12-05T08:33:23.853Z,1016.04
2018-12-05T08:34:23.807Z,1016.06
2018-12-05T08:35:23.809Z,1016.00
2018-12-05T08:36:23.806Z,1016.07
2018-12-05T08:37:23.778Z,1016.02
2018-12-05T08:38:23.782Z,1016.04
2018-12-05T08:39:23.757Z,1016.01
2018-12-05T08:40:23.736Z,1016.04
2018-12-05T08:41:23.732Z,1016.06
2018-12-05T08:42:23.714Z,1016.04
2018-12-05T08:43:23.736Z,1016.08
2018-12-05T08:44:23.714Z,1016.00
2018-12-05T08:45:23.692Z,1016.06
2018-12-05T08:46:23.688Z,1016.05
2018-12-05T08:47:23.664Z,1016.05
2018-12-05T08:48:23.685Z,1016.05
2018-12-05T08:49:23.637Z,1016.04
2018-12-05T08:50:23.678Z,1015.94
2018-12-05T08:51:23.635Z,1016.03
2018-12-05T08:52:23.604Z,1015.96
2018-12-05T08:53:23.607Z,1015.95
2018-12-05T08:54:23.605Z,1016.00
2018-12-05T08:55:23.571Z,1015.98
2018-12-05T08:56:23.584Z,1015.97
2018-12-05T08:57:23.559Z,1016.01
2018-12-05T08:58:23.610Z,1015.94
2018-12-05T08:59:23.548Z,1015.95
2018-12-05T09:00:23.519Z,1015.93
2018-12-05T09:01:23.501Z,1015.90
2018-12-05T09:02:23.542Z,1015.97
2018-12-05T09:03:23.523Z,1015.91
2018-12-05T09:04:23.471Z,1015.92
2018-12-05T09:05:23.478Z,1015.91
2018-12-05T09:06:23.446Z,1015.91
2018-12-05T09:07:23.459Z,1015.92
2018-12-05T09:08:23.435Z,1015.96
2018-12-05T09:09:23.444Z,1015.88
2018-12-05T09:10:23.410Z,1015.92
2018-12-05T09:11:23.398Z,1015.95
2018-12-05T09:12:23.389Z,1015.94
2018-12-05T09:13:23.396Z,1015.98
2018-12-05T09:14:28.800Z,1015.96
2018-12-05T09:15:24.404Z,1015.97
2018-12-05T09:16:23.349Z,1015.99
2018-12-05T09:17:23.351Z,1016.04
2018-12-05T09:18:23.323Z,1016.03
2018-12-05T09:19:23.332Z,1015.99
2018-12-05T09:20:23.299Z,1016.02
2018-12-05T09:21:32.648Z,1015.93
2018-12-05T09:22:23.561Z,1016.01
2018-12-05T09:23:23.455Z,1016.07
2018-12-05T09:24:23.529Z,1016.06
2018-12-05T09:25:23.491Z,1016.06
2018-12-05T09:26:23.270Z,1016.02
2018-12-05T09:27:23.367Z,1016.04
2018-12-05T09:28:23.238Z,1016.06
2018-12-05T09:29:23.349Z,1016.03
2018-12-05T09:30:23.244Z,1016.04
2018-12-05T09:31:23.250Z,1016.04
2018-12-05T09:32:23.264Z,1015.98
2018-12-05T09:33:23.229Z,1015.98
2018-12-05T09:34:23.182Z,1015.96
2018-12-05T09:35:23.172Z,1015.99
2018-12-05T09:36:23.193Z,1015.97
2018-12-05T09:37:23.162Z,1015.98
2018-12-05T09:38:23.247Z,1016.02
2018-12-05T09:39:23.149Z,1015.93
2018-12-05T09:40:23.163Z,1015.92
2018-12-05T09:41:23.098Z,1015.88
2018-12-05T09:42:23.193Z,1015.88
2018-12-05T09:43:23.113Z,1015.94
2018-12-05T09:44:23.071Z,1015.83
2018-12-05T09:45:23.095Z,1015.87
2018-12-05T09:46:23.081Z,1015.85
2018-12-05T09:47:23.041Z,1015.85
2018-12-05T09:48:23.016Z,1015.75
2018-12-05T09:49:23.090Z,1015.80
2018-12-05T09:50:23.002Z,1015.84
2018-12-05T09:51:23.009Z,1015.78
2018-12-05T09:52:23.056Z,1015.74
2018-12-05T09:53:22.960Z,1015.80
2018-12-05T09:54:22.975Z,1015.76
2018-12-05T09:55:22.949Z,1015.71
2018-12-05T09:56:22.944Z,1015.70
2018-12-05T09:57:23.043Z,1015.65
2018-12-05T09:58:23.020Z,1015.63
2018-12-05T09:59:22.936Z,1015.72
2018-12-05T10:00:22.925Z,1015.66
2018-12-05T10:01:22.882Z,1015.67
2018-12-05T10:02:22.886Z,1015.59
2018-12-05T10:03:22.893Z,1015.71
2018-12-05T10:04:22.866Z,1015.65
2018-12-05T10:05:22.826Z,1015.66
2018-12-05T10:06:22.839Z,1015.66
2018-12-05T10:07:22.854Z,1015.67
2018-12-05T10:08:22.836Z,1015.59
2018-12-05T10:09:22.813Z,1015.62
2018-12-05T10:10:22.814Z,1015.63
2018-12-05T10:11:22.813Z,1015.64
2018-12-05T10:12:22.812Z,1015.62
2018-12-05T10:13:22.760Z,1015.60
2018-12-05T10:14:22.748Z,1015.56
2018-12-05T10:15:31.485Z,1015.55
2018-12-05T10:16:22.687Z,1015.54
2018-12-05T10:17:22.677Z,1015.59
2018-12-05T10:18:22.736Z,1015.49
2018-12-05T10:19:22.691Z,1015.52
2018-12-05T10:20:22.643Z,1015.50
2018-12-05T10:21:22.648Z,1015.49
2018-12-05T10:22:22.633Z,1015.51
2018-12-05T10:23:22.634Z,1015.54
2018-12-05T10:24:22.613Z,1015.46
2018-12-05T10:25:22.593Z,1015.50
2018-12-05T10:26:22.585Z,1015.46
2018-12-05T10:27:22.639Z,1015.43
2018-12-05T10:28:22.558Z,1015.52
2018-12-05T10:29:22.552Z,1015.40
2018-12-05T10:30:22.538Z,1015.44
2018-12-05T10:31:22.520Z,1015.45
2018-12-05T10:32:22.513Z,1015.40
2018-12-05T10:33:22.530Z,1015.38
2018-12-05T10:34:22.498Z,1015.33
2018-12-05T10:35:22.504Z,1015.30
2018-12-05T10:36:22.473Z,1015.31
2018-12-05T10:37:22.457Z,1015.28
2018-12-05T10:38:22.493Z,1015.26
2018-12-05T10:39:22.450Z,1015.18
2018-12-05T10:40:22.427Z,1015.19
2018-12-05T10:41:22.412Z,1015.18
2018-12-05T10:42:22.402Z,1015.15
2018-12-05T10:43:22.423Z,1015.13
2018-12-05T10:44:22.405Z,1015.08
2018-12-05T10:45:22.376Z,1015.12
2018-12-05T10:46:22.431Z,1015.13
2018-12-05T10:47:22.355Z,1015.12
2018-12-05T10:48:22.334Z,1015.12
2018-12-05T10:49:22.353Z,1015.09
2018-12-05T10:50:22.319Z,1015.08
2018-12-05T10:51:22.314Z,1015.04
2018-12-05T10:52:22.290Z,1015.06
2018-12-05T10:53:22.297Z,1014.98
2018-12-05T10:54:22.311Z,1014.99
2018-12-05T10:55:22.271Z,1014.93
2018-12-05T10:56:22.269Z,1014.95
2018-12-05T10:57:22.251Z,1014.96
2018-12-05T10:58:22.230Z,1014.98
2018-12-05T10:59:22.219Z,1014.98
2018-12-05T11:00:22.230Z,1014.96
2018-12-05T11:01:22.203Z,1014.95
2018-12-05T11:02:22.198Z,1014.93
2018-12-05T11:03:23.885Z,1014.92
2018-12-05T11:04:22.167Z,1014.95
2018-12-05T11:05:22.170Z,1014.88
2018-12-05T11:06:22.147Z,1014.87
2018-12-05T11:07:22.137Z,1014.83
2018-12-05T11:08:22.120Z,1014.86
2018-12-05T11:09:22.114Z,1014.89
2018-12-05T11:10:22.156Z,1014.87
2018-12-05T11:11:22.093Z,1014.84
2018-12-05T11:12:22.079Z,1014.84
2018-12-05T11:13:22.072Z,1014.80
2018-12-05T11:14:22.107Z,1014.75
2018-12-05T11:15:22.070Z,1014.76
2018-12-05T11:16:22.063Z,1014.78
2018-12-05T11:17:22.052Z,1014.73
2018-12-05T11:18:22.011Z,1014.70
2018-12-05T11:19:22.018Z,1014.64
2018-12-05T11:20:22.026Z,1014.68
2018-12-05T11:21:22.003Z,1014.66
2018-12-05T11:22:21.970Z,1014.67
2018-12-05T11:23:21.972Z,1014.67
2018-12-05T11:24:21.945Z,1014.67
2018-12-05T11:25:21.934Z,1014.62
2018-12-05T11:26:21.969Z,1014.66
2018-12-05T11:27:21.919Z,1014.59
2018-12-05T11:28:21.905Z,1014.64
2018-12-05T11:29:21.919Z,1014.73
2018-12-05T11:30:21.886Z,1014.75
2018-12-05T11:31:21.890Z,1014.76
2018-12-05T11:32:21.928Z,1014.73
2018-12-05T11:33:21.861Z,1014.68
2018-12-05T11:34:21.886Z,1014.74
2018-12-05T11:35:21.828Z,1014.72
2018-12-05T11:36:21.815Z,1014.68
2018-12-05T11:37:21.875Z,1014.66
2018-12-05T11:38:21.826Z,1014.61
2018-12-05T11:39:21.851Z,1014.59
2018-12-05T11:40:21.792Z,1014.62
2018-12-05T11:41:21.769Z,1014.59
2018-12-05T11:42:21.754Z,1014.63
2018-12-05T11:43:21.746Z,1014.63
2018-12-05T11:44:21.733Z,1014.59
2018-12-05T11:45:21.779Z,1014.61
2018-12-05T11:46:21.717Z,1014.59
2018-12-05T11:47:21.703Z,1014.66
2018-12-05T11:48:21.687Z,1014.63
2018-12-05T11:49:21.694Z,1014.55
2018-12-05T11:50:21.689Z,1014.57
2018-12-05T11:51:21.657Z,1014.58
2018-12-05T11:52:21.657Z,1014.55
2018-12-05T11:53:21.666Z,1014.65
2018-12-05T11:54:21.638Z,1014.58
2018-12-05T11:55:21.656Z,1014.58
2018-12-05T11:56:21.649Z,1014.56
2018-12-05T11:57:21.589Z,1014.53
2018-12-05T11:58:21.630Z,1014.51
2018-12-05T11:59:21.595Z,1014.54
2018-12-05T12:00:21.583Z,1014.48
2018-12-05T12:01:21.559Z,1014.52
2018-12-05T12:02:22.484Z,1014.45
2018-12-05T12:03:21.523Z,1014.47
2018-12-05T12:04:21.547Z,1014.44
2018-12-05T12:05:21.514Z,1014.44
2018-12-05T12:06:21.499Z,1014.44